Time;durP1;ratioP1;P1;durP2;ratioP2;P2;SDS_P1;SDS_P2;PMS_P1;PMS_P2;Temp;Humidity;BMP_temperature;BMP_pressure;BME280_temperature;BME280_humidity;BME280_pressure;Samples;Min_cycle;Max_cycle;Signal;HPM_P1;HPM_P2
2023/07/15 00:02:09;;;;;;;7.60;7.00;;;;;;;23.72;70.40;95092.16;6111326;23;20172;-70
2023/07/15 00:04:55;;;;;;;8.07;7.38;;;;;;;23.65;70.39;95078.22;6100421;23;20278;-70
2023/07/15 00:07:41;;;;;;;7.07;6.40;;;;;;;23.62;70.23;95092.38;6111287;23;20175;-70
2023/07/15 00:10:27;;;;;;;7.57;6.72;;;;;;;23.63;70.31;95093.94;6101539;23;20198;-70
2023/07/15 00:13:14;;;;;;;7.60;6.82;;;;;;;23.64;70.35;95089.88;6110927;23;20171;-70
2023/07/15 00:16:01;;;;;;;7.63;6.80;;;;;;;23.62;70.37;95089.56;6101559;23;20187;-70
2023/07/15 00:18:50;;;;;;;7.50;6.80;;;;;;;23.64;70.84;95084.25;6110870;23;20171;-70
2023/07/15 00:21:37;;;;;;;7.50;6.68;;;;;;;23.64;70.78;95087.06;6101490;23;20176;-70
2023/07/15 00:24:23;;;;;;;8.65;7.15;;;;;;;23.64;70.84;95082.25;6101366;23;20231;-70
2023/07/15 00:27:09;;;;;;;7.80;7.10;;;;;;;23.64;70.85;95078.63;6111183;23;20171;-70
2023/07/15 00:29:55;;;;;;;8.05;7.00;;;;;;;23.65;71.29;95083.84;6101248;23;20171;-70
2023/07/15 00:32:41;;;;;;;7.60;6.90;;;;;;;23.68;71.14;95087.84;6111113;23;20215;-70
2023/07/15 00:35:29;;;;;;;7.53;6.82;;;;;;;23.62;70.86;95089.56;6100977;23;20272;-70
2023/07/15 00:38:16;;;;;;;8.57;7.72;;;;;;;23.54;70.95;95084.09;6101210;23;20175;-70
2023/07/15 00:41:01;;;;;;;7.60;6.90;;;;;;;23.49;71.06;95087.44;6100880;23;20267;-70
2023/07/15 00:43:52;;;;;;;7.30;6.60;;;;;;;23.43;71.38;95083.53;6100897;23;20225;-70
2023/07/15 00:46:56;;;;;;;7.35;6.65;;;;;;;23.37;71.41;95090.13;6101157;23;20233;-70
2023/07/15 00:49:42;;;;;;;7.60;6.90;;;;;;;23.25;71.18;95092.38;6110918;23;20234;-70
2023/07/15 00:52:29;;;;;;;7.60;6.90;;;;;;;23.15;71.60;95099.00;6100757;23;20211;-70
2023/07/15 00:55:15;;;;;;;7.75;7.05;;;;;;;23.15;71.66;95093.38;6110804;23;20175;-70
2023/07/15 00:58:03;;;;;;;7.45;6.85;;;;;;;23.19;72.09;95096.91;6101085;23;20188;-70
2023/07/15 01:00:48;;;;;;;7.22;6.63;;;;;;;23.19;71.71;95099.72;6110375;23;20175;-70
2023/07/15 01:03:37;;;;;;;9.00;6.95;;;;;;;23.16;71.75;95097.78;6100971;23;20263;-70
2023/07/15 01:06:23;;;;;;;7.43;6.72;;;;;;;23.18;72.10;95100.16;6110723;23;20247;-70
2023/07/15 01:09:10;;;;;;;8.10;7.30;;;;;;;23.19;72.08;95113.78;6100970;23;20580;-70
2023/07/15 01:11:56;;;;;;;9.25;6.80;;;;;;;23.17;71.91;95107.81;6100925;23;20275;-70
2023/07/15 01:14:44;;;;;;;7.75;7.05;;;;;;;23.17;72.19;95105.00;6100783;23;20199;-70
2023/07/15 01:17:30;;;;;;;7.65;6.88;;;;;;;23.17;71.75;95107.81;6100894;23;20260;-70
2023/07/15 01:20:17;;;;;;;7.70;6.30;;;;;;;23.20;71.93;95098.53;6100930;23;20168;-70
2023/07/15 01:23:05;;;;;;;7.35;6.75;;;;;;;23.19;71.73;95102.53;6100822;23;20219;-70
2023/07/15 01:25:51;;;;;;;9.15;7.47;;;;;;;23.15;72.42;95104.63;6110529;23;20208;-70
2023/07/15 01:28:37;;;;;;;7.13;6.53;;;;;;;23.11;72.19;95103.94;6110546;23;20220;-70
2023/07/15 01:31:26;;;;;;;7.13;6.40;;;;;;;23.09;71.91;95103.56;6100046;23;20275;-70
2023/07/15 01:34:14;;;;;;;7.72;6.93;;;;;;;23.05;72.12;95106.44;6100709;23;20253;-70
2023/07/15 01:37:00;;;;;;;6.88;6.28;;;;;;;23.00;72.32;95106.97;6100679;23;20192;-70
2023/07/15 01:39:49;;;;;;;7.22;6.45;;;;;;;22.97;72.53;95105.00;6100665;23;20179;-70
2023/07/15 01:42:35;;;;;;;7.30;6.60;;;;;;;22.98;72.51;95106.59;6110090;23;20172;-70
2023/07/15 01:45:21;;;;;;;7.35;6.65;;;;;;;22.95;72.42;95106.66;6110124;23;20585;-70
2023/07/15 01:48:07;;;;;;;7.70;6.95;;;;;;;22.91;72.89;95103.88;6106992;23;20188;-70
2023/07/15 01:50:53;;;;;;;9.40;7.22;;;;;;;22.90;72.99;95104.31;6100468;23;20195;-70
2023/07/15 01:53:38;;;;;;;7.55;6.85;;;;;;;22.89;72.77;95108.38;6100572;23;20588;-70
2023/07/15 01:56:26;;;;;;;8.77;6.68;;;;;;;22.88;73.29;95106.78;6110078;23;20251;-70
2023/07/15 01:59:12;;;;;;;7.88;6.57;;;;;;;22.84;73.59;95109.69;6100411;23;20259;-70
2023/07/15 02:01:58;;;;;;;7.78;6.90;;;;;;;22.79;72.92;95108.13;6110271;23;20520;-70
2023/07/15 02:04:43;;;;;;;8.45;7.15;;;;;;;22.75;73.12;95106.63;6110117;23;20224;-70
2023/07/15 02:07:29;;;;;;;7.88;7.05;;;;;;;22.73;73.26;95106.25;6100360;23;20175;-70
2023/07/15 02:10:17;;;;;;;7.95;7.20;;;;;;;22.73;73.45;95104.25;6109990;23;20171;-70
2023/07/15 02:13:06;;;;;;;9.35;7.07;;;;;;;22.72;73.68;95118.72;6100077;23;20462;-70
2023/07/15 02:15:52;;;;;;;8.27;7.18;;;;;;;22.70;73.42;95110.75;6099982;23;20172;-70
2023/07/15 02:18:38;;;;;;;8.25;7.35;;;;;;;22.69;73.76;95105.53;6109974;23;20172;-70
2023/07/15 02:21:26;;;;;;;8.00;6.97;;;;;;;22.65;73.87;95114.03;6100203;23;20187;-70
2023/07/15 02:24:12;;;;;;;7.85;6.78;;;;;;;22.64;73.95;95112.44;6099849;23;20190;-70
2023/07/15 02:26:58;;;;;;;8.00;7.15;;;;;;;22.64;74.04;95115.25;6099848;23;20182;-70
2023/07/15 02:29:45;;;;;;;7.68;6.97;;;;;;;22.67;74.04;95119.25;6099846;23;20576;-70
2023/07/15 02:32:39;;;;;;;9.02;7.32;;;;;;;22.67;73.94;95122.06;6099552;23;20219;-70
2023/07/15 02:35:25;;;;;;;8.63;7.13;;;;;;;22.64;74.11;95117.28;6100052;23;20516;-70
2023/07/15 02:38:12;;;;;;;9.77;7.53;;;;;;;22.64;74.18;95117.28;6109925;23;20179;-70
2023/07/15 02:40:58;;;;;;;8.80;7.80;;;;;;;22.64;74.30;95120.88;6100046;23;20212;-70
2023/07/15 02:43:46;;;;;;;8.25;7.28;;;;;;;22.59;74.22;95112.97;6100020;23;20235;-70
2023/07/15 02:46:33;;;;;;;9.13;7.75;;;;;;;22.53;74.50;95118.28;6099617;23;20252;-70
2023/07/15 02:49:19;;;;;;;8.80;7.57;;;;;;;22.51;74.67;95120.72;6109688;23;20207;-70
2023/07/15 02:52:08;;;;;;;9.93;8.00;;;;;;;22.51;74.75;95128.34;6109321;23;20271;-70
2023/07/15 02:54:54;;;;;;;7.72;7.03;;;;;;;22.47;74.80;95116.38;6109716;23;20292;-70
2023/07/15 02:57:41;;;;;;;9.65;7.68;;;;;;;22.45;74.91;95125.25;6100069;23;20248;-70
2023/07/15 03:00:27;;;;;;;7.90;7.10;;;;;;;22.42;74.85;95122.50;6099842;23;20613;-70
2023/07/15 03:03:14;;;;;;;9.07;8.07;;;;;;;22.35;74.78;95127.03;6109597;23;20221;-70
2023/07/15 03:06:01;;;;;;;7.85;7.15;;;;;;;22.35;75.11;95129.81;6099856;23;20179;-70
2023/07/15 03:08:46;;;;;;;8.13;7.40;;;;;;;22.34;74.67;95141.50;6109306;23;20171;-70
2023/07/15 03:11:33;;;;;;;8.38;7.47;;;;;;;22.36;74.85;95139.06;6099703;23;20199;-70
2023/07/15 03:14:19;;;;;;;8.27;7.47;;;;;;;22.35;74.56;95138.25;6099436;23;20193;-69
2023/07/15 03:17:05;;;;;;;9.10;7.78;;;;;;;22.34;74.56;95130.28;6109599;23;20180;-70
2023/07/15 03:19:53;;;;;;;13.02;11.82;;;;;;;22.32;74.77;95133.50;6109591;23;20179;-70
2023/07/15 03:22:39;;;;;;;16.45;14.82;;;;;;;22.30;75.00;95133.13;6099487;23;20171;-70
2023/07/15 03:25:26;;;;;;;22.00;19.95;;;;;;;22.31;74.93;95131.91;6099326;23;20251;-70
2023/07/15 03:28:13;;;;;;;17.80;16.00;;;;;;;22.30;75.40;95132.34;6099366;23;20285;-70
2023/07/15 03:31:00;;;;;;;17.55;15.18;;;;;;;22.23;75.14;95130.44;6099760;23;20215;-69
2023/07/15 03:33:46;;;;;;;15.35;13.82;;;;;;;22.22;75.41;95137.31;6109163;23;20271;-70
2023/07/15 03:36:33;;;;;;;16.48;14.85;;;;;;;22.24;75.38;95134.06;6099642;23;20192;-70
2023/07/15 03:39:21;;;;;;;16.38;14.85;;;;;;;22.22;75.46;95125.25;6099780;23;20229;-70
2023/07/15 03:42:07;;;;;;;13.35;11.80;;;;;;;22.23;75.21;95133.25;6099411;23;20573;-70
2023/07/15 03:44:53;;;;;;;11.60;10.50;;;;;;;22.23;75.64;95124.03;6109067;23;20175;-70
2023/07/15 03:47:40;;;;;;;11.02;9.93;;;;;;;22.24;75.51;95129.22;6109440;23;20252;-70
2023/07/15 03:50:27;;;;;;;10.65;9.23;;;;;;;22.23;75.67;95130.44;6109083;23;20621;-70
2023/07/15 03:53:15;;;;;;;9.90;8.90;;;;;;;22.22;75.69;95125.25;6099283;23;20242;-70
2023/07/15 03:56:00;;;;;;;10.27;9.27;;;;;;;22.20;75.55;95122.88;6099323;23;20224;-70
2023/07/15 03:58:46;;;;;;;10.55;9.43;;;;;;;22.21;75.93;95130.06;6099596;23;20206;-69
2023/07/15 04:01:35;;;;;;;10.00;9.00;;;;;;;22.21;75.80;95134.91;6099713;23;20179;-70
2023/07/15 04:04:22;;;;;;;10.25;8.75;;;;;;;22.24;76.04;95134.06;6099318;23;20255;-70
2023/07/15 04:07:09;;;;;;;9.32;7.90;;;;;;;22.26;75.72;95140.84;6109367;23;20227;-70
2023/07/15 04:09:59;;;;;;;9.23;8.32;;;;;;;22.22;75.53;95144.91;6099241;23;20179;-70
2023/07/15 04:12:46;;;;;;;9.15;8.25;;;;;;;22.19;75.19;95149.38;6099211;23;20199;-70
2023/07/15 04:15:32;;;;;;;8.20;7.43;;;;;;;22.16;75.06;95158.66;6099634;23;20470;-70
2023/07/15 04:18:17;;;;;;;8.85;7.97;;;;;;;22.15;75.40;95159.06;6099477;23;20172;-70
2023/07/15 04:21:03;;;;;;;9.10;8.20;;;;;;;22.16;75.15;95158.66;6099256;23;20168;-70
2023/07/15 04:23:51;;;;;;;9.85;8.93;;;;;;;22.18;75.14;95175.88;6099513;23;20172;-70
2023/07/15 04:26:39;;;;;;;10.68;8.05;;;;;;;22.18;75.23;95173.06;6099494;23;20605;-70
2023/07/15 04:29:26;;;;;;;10.95;8.38;;;;;;;22.20;75.25;95172.66;6099570;23;20232;-70
2023/07/15 04:32:12;;;;;;;9.50;8.50;;;;;;;22.20;75.47;95179.06;6100041;23;20219;-70
2023/07/15 04:35:02;;;;;;;9.88;8.45;;;;;;;22.21;75.02;95177.81;6099374;23;20177;-70
2023/07/15 04:37:48;;;;;;;9.55;8.52;;;;;;;22.21;75.17;95175.00;6100995;23;20585;-69
2023/07/15 04:40:35;;;;;;;9.90;8.32;;;;;;;22.26;75.04;95173.72;6100851;23;20175;-70
2023/07/15 04:43:22;;;;;;;10.10;8.55;;;;;;;22.27;75.23;95172.53;6101302;23;20219;-70
2023/07/15 04:46:09;;;;;;;9.32;8.30;;;;;;;22.27;75.49;95176.13;6101170;23;20316;-70
2023/07/15 04:48:55;;;;;;;12.07;8.30;;;;;;;22.28;75.48;95169.28;6110894;23;20167;-70
2023/07/15 04:51:42;;;;;;;9.57;8.57;;;;;;;22.31;75.74;95173.25;6101049;23;20199;-69
2023/07/15 04:54:28;;;;;;;10.60;8.63;;;;;;;22.30;75.13;95177.31;6110914;23;20171;-69
2023/07/15 04:57:16;;;;;;;8.73;7.88;;;;;;;22.31;75.26;95174.06;6100730;23;20171;-69
2023/07/15 05:00:10;;;;;;;9.38;8.18;;;;;;;22.35;74.99;95182.44;6110836;23;20194;-69
2023/07/15 05:02:59;;;;;;;8.88;8.07;;;;;;;22.40;74.99;95176.31;6101033;23;20192;-69
2023/07/15 05:05:46;;;;;;;9.75;8.77;;;;;;;22.43;75.07;95169.84;6110719;23;20176;-69
2023/07/15 05:08:33;;;;;;;9.38;8.57;;;;;;;22.46;75.01;95177.41;6100707;23;20187;-69
2023/07/15 05:11:19;;;;;;;9.27;8.35;;;;;;;22.48;74.99;95182.63;6120576;23;20461;-69
2023/07/15 05:14:06;;;;;;;9.48;8.57;;;;;;;22.49;75.05;95176.56;6100958;23;20231;-69
2023/07/15 05:16:56;;;;;;;11.68;9.30;;;;;;;22.53;75.21;95182.13;6100511;23;20175;-69
2023/07/15 05:19:41;;;;;;;9.88;8.98;;;;;;;22.55;75.24;95179.69;6100983;23;20191;-69
2023/07/15 05:22:27;;;;;;;11.38;8.85;;;;;;;22.57;75.85;95175.22;6100790;23;20232;-69
2023/07/15 05:25:16;;;;;;;9.85;8.95;;;;;;;22.59;75.20;95172.78;6100852;23;20180;-69
2023/07/15 05:28:02;;;;;;;10.40;9.23;;;;;;;22.61;75.42;95165.94;6110573;23;20571;-69
2023/07/15 05:30:51;;;;;;;12.80;11.48;;;;;;;22.63;75.78;95171.94;6100630;23;20172;-69
2023/07/15 05:33:38;;;;;;;18.55;16.58;;;;;;;22.66;75.60;95177.47;6100275;23;20195;-69
2023/07/15 05:36:27;;;;;;;19.92;17.92;;;;;;;22.68;75.25;95172.22;6110449;23;20179;-69
2023/07/15 05:39:13;;;;;;;20.40;18.27;;;;;;;22.74;75.12;95180.97;6110174;23;20462;-69
2023/07/15 05:41:59;;;;;;;18.90;16.35;;;;;;;22.78;75.20;95178.88;6103760;23;20216;-69
2023/07/15 05:45:23;;;;;;;14.20;12.80;;;;;;;22.80;74.40;95182.03;6110366;23;20176;-69
2023/07/15 05:48:47;;;;;;;13.95;12.70;;;;;;;22.85;74.06;95187.19;6109573;23;20579;-69
2023/07/15 05:52:11;;;;;;;12.65;11.15;;;;;;;22.89;74.68;95187.13;6100182;23;20237;-69
2023/07/15 05:55:35;;;;;;;12.23;10.20;;;;;;;22.91;74.79;95185.44;6110307;23;20179;-69
2023/07/15 05:58:59;;;;;;;11.27;9.85;;;;;;;22.94;74.39;95197.88;6100403;23;20175;-69
2023/07/15 06:02:23;;;;;;;11.50;10.30;;;;;;;22.97;74.84;95197.81;6100444;23;20261;-69
2023/07/15 06:05:47;;;;;;;11.85;10.75;;;;;;;23.03;74.22;95192.50;6100373;23;20228;-70
2023/07/15 06:09:11;;;;;;;11.27;10.15;;;;;;;23.05;73.33;95193.63;6100359;23;20191;-69
2023/07/15 06:12:34;;;;;;;12.35;10.93;;;;;;;23.06;73.09;95188.81;6100154;23;20196;-69
2023/07/15 06:15:57;;;;;;;11.13;9.93;;;;;;;23.09;74.01;95189.97;6100292;23;20330;-69
2023/07/15 06:19:21;;;;;;;14.45;12.20;;;;;;;23.11;74.02;95174.25;6110085;23;20244;-69
2023/07/15 06:22:45;;;;;;;11.90;10.35;;;;;;;23.18;73.48;95179.75;6099863;23;20224;-69
2023/07/15 06:26:09;;;;;;;11.50;10.30;;;;;;;23.24;73.20;95174.38;6109597;23;20224;-69
2023/07/15 06:29:36;;;;;;;12.95;11.60;;;;;;;23.26;73.40;95172.72;6100210;23;20179;-69
2023/07/15 06:33:00;;;;;;;12.10;11.00;;;;;;;23.30;72.82;95178.28;6099658;23;20218;-69
2023/07/15 06:36:24;;;;;;;13.65;11.65;;;;;;;23.33;72.47;95171.00;6100119;23;20255;-69
2023/07/15 06:39:47;;;;;;;13.43;12.07;;;;;;;23.37;72.42;95172.50;6100033;23;20255;-69
2023/07/15 06:43:11;;;;;;;14.38;11.68;;;;;;;23.43;72.42;95170.78;6099741;23;20256;-70
2023/07/15 06:45:59;;;;;;;13.90;12.52;;;;;;;23.51;72.81;95180.66;6099640;23;20338;-69
2023/07/15 06:48:45;;;;;;;13.55;12.15;;;;;;;23.58;72.33;95174.09;6100015;23;20179;-69
2023/07/15 06:51:30;;;;;;;12.57;11.40;;;;;;;23.63;72.32;95167.94;6109123;23;20167;-70
2023/07/15 06:54:16;;;;;;;12.30;11.00;;;;;;;23.67;72.11;95170.69;6109483;23;20219;-70
2023/07/15 06:57:03;;;;;;;14.00;12.50;;;;;;;23.71;71.92;95169.41;6099925;23;20231;-69
2023/07/15 06:59:49;;;;;;;13.65;12.35;;;;;;;23.78;71.58;95169.25;6099489;23;20167;-70
2023/07/15 07:02:38;;;;;;;15.32;12.05;;;;;;;23.83;71.41;95162.31;6099865;23;20469;-70
2023/07/15 07:05:23;;;;;;;13.82;12.40;;;;;;;23.86;71.29;95169.88;6099863;23;20180;-70
2023/07/15 07:08:10;;;;;;;14.25;12.75;;;;;;;23.91;70.73;95175.00;6099492;23;20172;-70
2023/07/15 07:10:56;;;;;;;13.80;12.50;;;;;;;23.97;70.91;95166.81;6109313;23;20175;-69
2023/07/15 07:13:41;;;;;;;12.77;11.45;;;;;;;24.04;71.43;95166.66;6099679;23;20316;-69
2023/07/15 07:16:27;;;;;;;13.50;12.25;;;;;;;24.10;71.15;95178.97;6099481;23;20180;-69
2023/07/15 07:19:15;;;;;;;14.82;13.27;;;;;;;24.13;70.89;95178.09;6109285;23;20576;-69
2023/07/15 07:22:01;;;;;;;14.52;12.40;;;;;;;24.17;70.70;95172.38;6099474;23;20223;-69
2023/07/15 07:24:47;;;;;;;13.48;12.05;;;;;;;24.20;70.26;95177.13;6107585;23;20603;-69
2023/07/15 07:27:32;;;;;;;13.43;10.93;;;;;;;24.26;70.51;95173.38;6099803;23;20228;-70
2023/07/15 07:30:19;;;;;;;12.95;11.75;;;;;;;24.29;69.97;95168.06;6109596;23;20220;-70
2023/07/15 07:33:05;;;;;;;12.70;11.38;;;;;;;24.34;69.02;95161.91;6099330;23;20188;-70
2023/07/15 07:35:55;;;;;;;12.35;11.23;;;;;;;24.37;68.81;95161.81;6099354;23;20576;-70
2023/07/15 07:38:41;;;;;;;17.35;12.38;;;;;;;24.44;69.71;95161.69;6099447;23;20175;-70
2023/07/15 07:41:27;;;;;;;15.10;11.13;;;;;;;24.53;67.79;95168.72;6099729;23;20176;-70
2023/07/15 07:44:13;;;;;;;12.40;11.20;;;;;;;24.60;66.85;95165.72;6099726;23;20171;-70
2023/07/15 07:47:00;;;;;;;13.10;11.30;;;;;;;24.63;66.38;95162.00;6109467;23;20167;-70
2023/07/15 07:49:45;;;;;;;12.93;11.52;;;;;;;24.68;66.35;95164.28;6099695;23;20191;-70
2023/07/15 07:52:33;;;;;;;12.27;11.18;;;;;;;24.78;66.76;95166.03;6099307;23;20236;-70
2023/07/15 07:55:21;;;;;;;12.93;11.63;;;;;;;24.84;65.87;95160.66;6099367;23;20176;-70
2023/07/15 07:58:07;;;;;;;13.35;12.05;;;;;;;24.93;67.12;95158.78;6099698;23;20645;-70
2023/07/15 08:00:54;;;;;;;12.60;11.38;;;;;;;25.03;65.76;95165.38;6099371;23;20184;-70
2023/07/15 08:03:43;;;;;;;13.27;11.50;;;;;;;25.10;65.77;95153.09;6109366;23;20170;-69
2023/07/15 08:06:29;;;;;;;12.73;11.50;;;;;;;25.14;65.21;95153.81;6099711;23;20179;-70
2023/07/15 08:09:18;;;;;;;13.63;12.32;;;;;;;25.12;64.50;95156.28;6099597;23;20566;-69
2023/07/15 08:12:05;;;;;;;13.00;11.60;;;;;;;25.16;66.83;95160.63;6100925;23;20175;-70
2023/07/15 08:14:52;;;;;;;13.98;12.55;;;;;;;25.27;65.59;95156.66;6101494;23;20175;-70
2023/07/15 08:17:38;;;;;;;14.65;13.07;;;;;;;25.32;65.54;95158.97;6101497;23;20228;-70
2023/07/15 08:20:25;;;;;;;13.98;12.63;;;;;;;25.43;64.77;95162.25;6101088;23;20179;-69
2023/07/15 08:23:11;;;;;;;13.75;12.30;;;;;;;25.48;64.55;95155.25;6111178;23;20216;-70
2023/07/15 08:26:03;;;;;;;13.18;11.88;;;;;;;25.55;63.71;95166.34;6111135;23;20175;-69
2023/07/15 08:28:48;;;;;;;13.90;12.23;;;;;;;25.59;63.77;95162.16;6101413;23;20561;-69
2023/07/15 08:31:35;;;;;;;13.38;12.15;;;;;;;25.59;63.16;95159.34;6100816;23;20215;-69
2023/07/15 08:34:23;;;;;;;13.27;12.07;;;;;;;25.62;63.12;95157.66;6101174;23;20243;-69
2023/07/15 08:37:12;;;;;;;13.57;12.27;;;;;;;25.68;63.36;95165.13;6100918;23;20175;-69
2023/07/15 08:39:58;;;;;;;13.65;12.25;;;;;;;25.80;63.92;95157.16;6101359;23;20236;-70
2023/07/15 08:42:47;;;;;;;13.45;12.25;;;;;;;26.01;64.03;95152.88;6110675;23;20212;-69
2023/07/15 08:45:36;;;;;;;16.50;12.00;;;;;;;26.12;62.62;95162.59;6110976;23;20192;-69
2023/07/15 08:48:22;;;;;;;12.65;11.35;;;;;;;26.16;62.80;95162.50;6110565;23;20252;-69
2023/07/15 08:51:09;;;;;;;12.90;11.70;;;;;;;26.17;63.66;95159.19;6099923;23;20584;-69
2023/07/15 08:53:54;;;;;;;12.52;11.43;;;;;;;26.25;62.77;95150.50;6101224;23;20227;-69
2023/07/15 08:56:39;;;;;;;13.02;11.73;;;;;;;26.41;65.03;95151.16;6110509;23;20168;-69
2023/07/15 08:59:28;;;;;;;13.25;11.93;;;;;;;26.66;61.62;95155.22;6101052;23;20576;-69
2023/07/15 09:02:13;;;;;;;13.02;11.60;;;;;;;26.83;61.55;95150.19;6101705;23;20180;-69
2023/07/15 09:04:59;;;;;;;13.65;11.90;;;;;;;26.91;59.94;95147.88;6101152;23;20212;-69
2023/07/15 09:07:48;;;;;;;13.38;11.98;;;;;;;27.00;61.56;95154.44;6100672;23;20248;-69
2023/07/15 09:10:34;;;;;;;12.10;10.85;;;;;;;27.12;59.69;95150.00;6100787;23;20192;-69
2023/07/15 09:13:24;;;;;;;12.13;10.93;;;;;;;27.18;59.55;95159.47;6101142;23;20325;-69
2023/07/15 09:16:13;;;;;;;12.90;11.63;;;;;;;27.26;59.65;95151.53;6110400;23;20296;-69
2023/07/15 09:19:02;;;;;;;13.90;11.68;;;;;;;27.28;60.17;95152.66;6100556;23;20175;-69
2023/07/15 09:22:05;;;;;;;13.25;11.75;;;;;;;27.55;58.90;95146.38;6100781;23;20175;-69
2023/07/15 09:24:52;;;;;;;13.68;10.98;;;;;;;27.69;58.02;95147.88;6110578;23;20235;-69
2023/07/15 09:27:42;;;;;;;12.45;11.18;;;;;;;27.81;59.46;95134.91;6100728;23;20175;-69
2023/07/15 09:30:28;;;;;;;13.07;11.75;;;;;;;27.93;60.36;95138.91;6110222;23;20168;-69
2023/07/15 09:33:39;;;;;;;13.30;11.55;;;;;;;28.10;58.74;95133.78;6109157;23;20258;-69
2023/07/15 09:36:29;;;;;;;12.05;10.75;;;;;;;28.21;57.60;95134.13;6110122;23;20179;-70
2023/07/15 09:39:55;;;;;;;13.73;11.40;;;;;;;28.17;57.79;95125.78;6100724;23;20336;-70
2023/07/15 09:43:18;;;;;;;13.55;11.43;;;;;;;28.39;57.69;95122.88;6013204;23;20285;-70
2023/07/15 09:46:42;;;;;;;13.63;12.20;;;;;;;28.50;57.08;95120.38;6013008;23;20344;-69
2023/07/15 09:50:06;;;;;;;14.23;11.43;;;;;;;28.62;57.12;95115.84;6012914;23;20494;-70
2023/07/15 09:53:30;;;;;;;13.68;12.30;;;;;;;28.65;55.92;95114.09;6022035;23;20209;-70
2023/07/15 09:56:53;;;;;;;13.38;12.05;;;;;;;28.62;55.03;95107.34;6012930;23;20294;-70
2023/07/15 10:00:18;;;;;;;13.80;12.52;;;;;;;28.71;55.48;95106.56;6012874;23;20192;-70
2023/07/15 10:03:41;;;;;;;15.88;12.70;;;;;;;28.82;56.19;95112.56;6021945;23;20173;-70
2023/07/15 10:07:05;;;;;;;13.25;11.98;;;;;;;29.01;57.06;95105.66;6012819;23;20197;-70
2023/07/15 10:10:29;;;;;;;13.23;11.93;;;;;;;29.09;54.48;95108.97;6012830;23;20182;-69
2023/07/15 10:13:52;;;;;;;14.02;12.38;;;;;;;29.12;53.73;95110.06;6018779;23;20498;-70
2023/07/15 10:17:16;;;;;;;13.75;12.20;;;;;;;29.17;53.50;95106.59;6022115;23;20173;-70
2023/07/15 10:20:40;;;;;;;13.50;12.20;;;;;;;29.29;53.22;95107.69;6082148;23;20333;-70
2023/07/15 10:24:03;;;;;;;12.88;11.77;;;;;;;29.39;53.07;95100.75;6099859;23;20171;-70
2023/07/15 10:27:27;;;;;;;13.30;11.93;;;;;;;29.43;51.86;95105.00;6100186;23;20176;-70
2023/07/15 10:30:50;;;;;;;13.85;12.27;;;;;;;29.53;51.68;95105.78;6110044;23;20191;-70
2023/07/15 10:34:13;;;;;;;13.95;12.15;;;;;;;29.58;52.42;95102.31;6070787;23;20200;-70
2023/07/15 10:37:37;;;;;;;14.63;13.00;;;;;;;29.72;56.33;95098.78;6071341;23;20252;-70
2023/07/15 10:40:50;;;;;;;14.05;12.65;;;;;;;29.89;54.43;95101.28;6080963;23;20172;-69
2023/07/15 10:43:40;;;;;;;18.05;12.52;;;;;;;30.00;51.42;95095.88;6080583;23;20180;-69
2023/07/15 10:46:30;;;;;;;16.30;12.90;;;;;;;30.04;52.58;95095.69;6076568;23;20492;-69
2023/07/15 10:49:17;;;;;;;14.07;12.25;;;;;;;30.08;52.25;95097.09;6071226;23;20181;-69
2023/07/15 10:52:04;;;;;;;16.30;14.60;;;;;;;30.10;51.75;95093.75;6071251;23;20195;-69
2023/07/15 10:54:54;;;;;;;14.02;12.82;;;;;;;30.19;52.99;95086.00;6071085;23;20303;-69
2023/07/15 10:57:42;;;;;;;14.23;12.60;;;;;;;30.29;51.45;95089.59;6070883;23;20585;-69
2023/07/15 11:00:31;;;;;;;11.90;10.90;;;;;;;30.33;48.39;95093.06;6080749;23;20232;-69
2023/07/15 11:03:18;;;;;;;12.70;11.13;;;;;;;30.34;48.43;95093.84;6071230;23;20273;-69
2023/07/15 11:06:04;;;;;;;11.57;10.38;;;;;;;30.34;47.70;95085.31;6070832;23;20259;-69
2023/07/15 11:08:51;;;;;;;13.60;11.18;;;;;;;30.30;48.78;95081.84;6080710;23;20168;-69
2023/07/15 11:11:39;;;;;;;12.43;11.10;;;;;;;30.22;49.92;95072.88;6071193;23;20180;-69
2023/07/15 11:14:29;;;;;;;12.10;11.00;;;;;;;30.24;49.30;95078.06;6080608;23;20196;-69
2023/07/15 11:17:15;;;;;;;12.25;11.00;;;;;;;30.35;50.26;95073.44;6080414;23;20248;-69
2023/07/15 11:20:05;;;;;;;13.65;12.38;;;;;;;30.44;50.80;95066.91;6070716;23;20164;-69
2023/07/15 11:22:51;;;;;;;12.73;11.35;;;;;;;30.50;47.16;95064.16;6070692;23;20183;-69
2023/07/15 11:25:38;;;;;;;12.48;11.32;;;;;;;30.55;48.04;95070.00;6071019;23;20228;-69
2023/07/15 11:28:24;;;;;;;13.50;11.93;;;;;;;30.55;48.02;95057.84;6071003;23;20232;-69
2023/07/15 11:31:12;;;;;;;13.25;12.05;;;;;;;30.67;49.44;95051.88;6086768;23;20211;-69
2023/07/15 11:33:58;;;;;;;13.73;11.02;;;;;;;30.76;47.84;95045.38;6099619;23;20215;-69
2023/07/15 11:36:45;;;;;;;12.93;11.75;;;;;;;30.81;48.24;95052.44;6099763;23;20176;-69
2023/07/15 11:39:31;;;;;;;13.20;11.77;;;;;;;30.84;48.29;95049.41;6099449;23;20179;-69
2023/07/15 11:42:18;;;;;;;12.07;11.02;;;;;;;30.86;49.02;95046.06;6099675;23;20253;-69
2023/07/15 11:45:04;;;;;;;12.57;11.40;;;;;;;30.98;47.41;95044.25;6099467;23;20187;-69
2023/07/15 11:47:55;;;;;;;14.10;12.70;;;;;;;30.95;46.80;95051.69;6101769;23;20258;-69
2023/07/15 11:50:42;;;;;;;13.40;12.02;;;;;;;30.65;46.56;95053.66;6101770;23;20179;-69
2023/07/15 11:53:32;;;;;;;13.20;11.88;;;;;;;30.48;47.67;95041.91;6101303;23;20271;-69
2023/07/15 11:56:33;;;;;;;14.18;12.73;;;;;;;30.56;50.13;95036.63;6101939;23;20191;-69
2023/07/15 12:00:05;;;;;;;13.10;11.75;;;;;;;30.76;48.80;95036.03;6101383;23;20247;-69
2023/07/15 12:03:28;;;;;;;13.88;11.75;;;;;;;30.84;49.32;95040.88;6052159;23;20609;-69
2023/07/15 12:06:53;;;;;;;15.68;11.90;;;;;;;30.75;48.60;95032.38;6041882;23;20224;-69
2023/07/15 12:10:17;;;;;;;12.90;10.90;;;;;;;30.82;47.80;95042.63;6051871;23;20228;-69
2023/07/15 12:13:41;;;;;;;12.73;11.52;;;;;;;30.85;47.76;95039.59;6051638;23;20338;-69
2023/07/15 12:17:03;;;;;;;14.05;12.65;;;;;;;30.82;48.03;95039.78;6051509;23;20180;-69
2023/07/15 12:20:26;;;;;;;14.38;11.55;;;;;;;30.84;47.03;95026.63;6042144;23;20249;-69
2023/07/15 12:23:51;;;;;;;14.30;12.02;;;;;;;30.61;47.87;95030.25;6051593;23;20227;-69
2023/07/15 12:27:15;;;;;;;12.70;11.43;;;;;;;30.52;49.83;95021.81;6041838;23;20508;-69
2023/07/15 12:30:38;;;;;;;13.10;11.80;;;;;;;30.66;49.57;95021.06;6042123;23;20173;-69
2023/07/15 12:34:01;;;;;;;13.02;10.90;;;;;;;30.80;47.52;95019.56;5985535;24;20264;-69
2023/07/15 12:37:24;;;;;;;16.17;11.13;;;;;;;30.94;46.48;95015.97;5985272;23;20247;-69
2023/07/15 12:40:48;;;;;;;12.77;11.52;;;;;;;30.96;46.24;95010.53;6051617;23;20220;-69
2023/07/15 12:44:13;;;;;;;11.88;10.68;;;;;;;31.05;45.02;94995.44;6081651;23;20172;-69
2023/07/15 12:47:37;;;;;;;11.63;10.45;;;;;;;31.10;45.48;94992.69;6082007;23;20236;-69
2023/07/15 12:51:00;;;;;;;12.05;10.60;;;;;;;31.13;46.45;94990.94;6072070;23;20180;-69
2023/07/15 12:54:25;;;;;;;12.10;10.88;;;;;;;31.20;45.76;94995.47;6071909;23;20196;-69
2023/07/15 12:57:49;;;;;;;12.25;11.05;;;;;;;31.26;46.54;94990.63;6072052;23;20229;-69
2023/07/15 13:00:39;;;;;;;12.23;10.95;;;;;;;31.26;45.37;94994.25;6081893;23;20180;-69
2023/07/15 13:03:26;;;;;;;12.25;11.05;;;;;;;31.24;44.80;94987.50;6072276;23;20457;-69
2023/07/15 13:06:12;;;;;;;14.88;11.10;;;;;;;31.20;44.03;94990.53;6072271;23;20565;-69
2023/07/15 13:08:59;;;;;;;12.10;9.98;;;;;;;31.15;43.21;94992.00;6072223;23;20625;-69
2023/07/15 13:11:45;;;;;;;12.05;10.77;;;;;;;31.16;44.05;94985.03;6071839;23;20252;-69
2023/07/15 13:14:31;;;;;;;11.02;9.93;;;;;;;31.16;44.56;94982.19;6072088;23;20614;-69
2023/07/15 13:17:18;;;;;;;12.55;11.38;;;;;;;31.20;45.68;94986.91;6081474;23;20169;-69
2023/07/15 13:20:06;;;;;;;11.95;10.73;;;;;;;31.23;45.22;94988.75;6081413;23;20176;-69
2023/07/15 13:22:54;;;;;;;12.13;10.90;;;;;;;31.18;44.75;94988.16;6072077;23;20172;-69
2023/07/15 13:25:23;;;;;;;13.07;11.85;;;;;;;31.16;45.53;94984.25;6047012;23;20559;-69
2023/07/15 13:28:08;;;;;;;14.05;11.98;;;;;;;31.21;45.29;94989.25;6071987;23;20280;-69
2023/07/15 13:30:54;;;;;;;11.38;10.30;;;;;;;31.29;44.63;94990.44;6074351;23;20172;-69